Time,TemperatureF,DewpointF,PressureIn,WindDirection,WindDirectionDegrees,WindSpeedMPH,WindSpeedGustMPH,Humidity,HourlyPrecipIn,Conditions,Clouds,dailyrainin,SoftwareType,DateUTC
2013-03-15 00:09:00,38.6,35.0,30.20,West,275,0.0,-999.0,85,-99.99,,,0.00,weatherlink.com 1.10,2013-03-15 04:09:00,
2013-03-15 00:24:00,38.4,34.0,30.20,West,275,0.0,-999.0,84,-99.99,,,0.00,weatherlink.com 1.10,2013-03-15 04:24:00,
2013-03-15 00:39:00,38.1,34.0,30.20,West,275,0.0,-999.0,85,-99.99,,,0.00,weatherlink.com 1.10,2013-03-15 04:39:00,
2013-03-15 00:54:00,38.2,34.0,30.20,West,275,0.0,-999.0,86,-99.99,,,0.00,weatherlink.com 1.10,2013-03-15 04:54:00,
2013-03-15 01:09:00,38.2,35.0,30.20,West,275,0.0,-999.0,87,-99.99,,,0.00,weatherlink.com 1.10,2013-03-15 05:09:00,
2013-03-15 01:24:00,38.4,35.0,30.20,West,275,0.0,-999.0,88,-99.99,,,0.00,weatherlink.com 1.10,2013-03-15 05:24:00,
2013-03-15 01:39:00,38.3,35.0,30.20,West,275,0.0,-999.0,88,-99.99,,,0.00,weatherlink.com 1.10,2013-03-15 05:39:00,
2013-03-15 01:54:00,38.3,35.0,30.19,West,275,0.0,-999.0,89,-99.99,,,0.00,weatherlink.com 1.10,2013-03-15 05:54:00,
2013-03-15 02:09:00,38.1,35.0,30.18,West,275,0.0,-999.0,88,-99.99,,,0.00,weatherlink.com 1.10,2013-03-15 06:09:00,
2013-03-15 02:24:00,38.0,35.0,30.18,West,275,0.0,-999.0,89,-99.99,,,0.00,weatherlink.com 1.10,2013-03-15 06:24:00,
2013-03-15 02:39:00,38.4,36.0,30.17,West,275,0.0,-999.0,89,-99.99,,,0.00,weatherlink.com 1.10,2013-03-15 06:39:00,
2013-03-15 02:55:00,38.5,36.0,30.18,West,275,0.0,-999.0,89,-99.99,,,0.00,weatherlink.com 1.10,2013-03-15 06:55:00,
2013-03-15 03:10:00,38.6,36.0,30.18,West,275,0.0,-999.0,89,-99.99,,,0.00,weatherlink.com 1.10,2013-03-15 07:10:00,
2013-03-15 03:25:00,39.4,37.0,30.18,West,275,0.0,-999.0,90,-99.99,,,0.00,weatherlink.com 1.10,2013-03-15 07:25:00,
2013-03-15 03:40:00,40.0,37.0,30.17,West,275,0.0,-999.0,90,-99.99,,,0.00,weatherlink.com 1.10,2013-03-15 07:40:00,
2013-03-15 03:55:00,40.2,38.0,30.17,West,275,0.0,-999.0,90,-99.99,,,0.00,weatherlink.com 1.10,2013-03-15 07:55:00,
2013-03-15 04:10:00,40.4,38.0,30.16,West,275,0.0,-999.0,90,-99.99,,,0.00,weatherlink.com 1.10,2013-03-15 08:10:00,
2013-03-15 04:25:00,40.0,37.0,30.16,West,275,0.0,-999.0,89,-99.99,,,0.00,weatherlink.com 1.10,2013-03-15 08:25:00,
2013-03-15 04:40:00,39.6,37.0,30.16,West,275,0.0,-999.0,90,-99.99,,,0.00,weatherlink.com 1.10,2013-03-15 08:40:00,
2013-03-15 04:55:00,38.9,36.0,30.16,West,275,0.0,-999.0,90,-99.99,,,0.00,weatherlink.com 1.10,2013-03-15 08:55:00,
2013-03-15 05:10:00,38.6,36.0,30.16,West,275,0.0,-999.0,90,-99.99,,,0.00,weatherlink.com 1.10,2013-03-15 09:10:00,
2013-03-15 05:25:00,38.3,36.0,30.16,West,275,0.0,-999.0,90,-99.99,,,0.00,weatherlink.com 1.10,2013-03-15 09:25:00,
2013-03-15 05:40:00,38.1,36.0,30.17,West,275,0.0,-999.0,91,-99.99,,,0.00,weatherlink.com 1.10,2013-03-15 09:40:00,
2013-03-15 05:55:00,37.9,36.0,30.18,West,275,0.0,-999.0,91,-99.99,,,0.00,weatherlink.com 1.10,2013-03-15 09:55:00,
2013-03-15 06:10:00,37.8,36.0,30.18,West,275,0.0,-999.0,91,-99.99,,,0.00,weatherlink.com 1.10,2013-03-15 10:10:00,
2013-03-15 06:25:00,37.8,36.0,30.18,West,275,0.0,-999.0,92,-99.99,,,0.00,weatherlink.com 1.10,2013-03-15 10:25:00,
2013-03-15 06:40:00,37.4,35.0,30.18,West,275,0.0,-999.0,92,-99.99,,,0.00,weatherlink.com 1.10,2013-03-15 10:40:00,
2013-03-15 06:55:00,37.3,35.0,30.19,West,275,0.0,-999.0,92,-99.99,,,0.00,weatherlink.com 1.10,2013-03-15 10:55:00,
2013-03-15 07:10:00,37.0,35.0,30.19,West,275,0.0,-999.0,91,-99.99,,,0.00,weatherlink.com 1.10,2013-03-15 11:10:00,
2013-03-15 07:25:00,36.4,34.0,30.19,West,275,0.0,-999.0,91,-99.99,,,0.00,weatherlink.com 1.10,2013-03-15 11:25:00,
2013-03-15 07:40:00,36.0,33.0,30.19,West,275,0.0,-999.0,90,-99.99,,,0.00,weatherlink.com 1.10,2013-03-15 11:40:00,
2013-03-15 07:55:00,35.6,33.0,30.20,West,275,0.0,-999.0,90,-99.99,,,0.00,weatherlink.com 1.10,2013-03-15 11:55:00,
2013-03-15 08:10:00,35.5,33.0,30.21,NNW,327,0.0,-999.0,90,-99.99,,,0.00,weatherlink.com 1.10,2013-03-15 12:10:00,
2013-03-15 08:25:00,36.3,34.0,30.21,NW,311,0.0,-999.0,90,-99.99,,,0.00,weatherlink.com 1.10,2013-03-15 12:25:00,
2013-03-15 08:40:00,38.4,35.0,30.21,NW,311,0.0,-999.0,88,-99.99,,,0.00,weatherlink.com 1.10,2013-03-15 12:40:00,
2013-03-15 08:55:00,41.4,36.0,30.22,NW,311,0.0,-999.0,81,-99.99,,,0.00,weatherlink.com 1.10,2013-03-15 12:55:00,
2013-03-15 09:10:00,44.0,36.0,30.21,NW,311,0.0,-999.0,73,-99.99,,,0.00,weatherlink.com 1.10,2013-03-15 13:10:00,
2013-03-15 09:25:00,46.6,37.0,30.21,NNW,345,0.0,-999.0,70,-99.99,,,0.00,weatherlink.com 1.10,2013-03-15 13:25:00,
2013-03-15 09:40:00,48.8,37.0,30.21,NNE,19,0.0,-999.0,65,-99.99,,,0.00,weatherlink.com 1.10,2013-03-15 13:40:00,
2013-03-15 09:55:00,50.3,38.0,30.21,NNE,17,1.0,-999.0,63,-99.99,,,0.00,weatherlink.com 1.10,2013-03-15 13:55:00,
2013-03-15 10:10:00,51.5,37.0,30.21,NNW,332,0.0,-999.0,59,-99.99,,,0.00,weatherlink.com 1.10,2013-03-15 14:10:00,
2013-03-15 10:25:00,53.0,38.0,30.21,SW,223,1.0,-999.0,58,-99.99,,,0.00,weatherlink.com 1.10,2013-03-15 14:25:00,
2013-03-15 10:41:00,55.1,37.0,30.21,North,5,0.0,-999.0,50,-99.99,,,0.00,weatherlink.com 1.10,2013-03-15 14:41:00,
2013-03-15 10:56:00,56.0,35.0,30.20,WNW,287,0.0,-999.0,46,-99.99,,,0.00,weatherlink.com 1.10,2013-03-15 14:56:00,
2013-03-15 11:11:00,58.1,35.0,30.19,NNE,13,0.0,-999.0,43,-99.99,,,0.00,weatherlink.com 1.10,2013-03-15 15:11:00,
2013-03-15 11:56:00,61.5,35.0,30.18,WSW,257,1.0,-999.0,37,-99.99,,,0.00,weatherlink.com 1.10,2013-03-15 15:56:00,
2013-03-15 12:11:00,63.0,35.0,30.18,West,271,2.0,-999.0,36,-99.99,,,0.00,weatherlink.com 1.10,2013-03-15 16:11:00,
2013-03-15 12:26:00,64.0,36.0,30.18,WSW,244,1.0,-999.0,35,-99.99,,,0.00,weatherlink.com 1.10,2013-03-15 16:26:00,
2013-03-15 12:41:00,65.2,36.0,30.17,West,259,1.0,-999.0,34,-99.99,,,0.00,weatherlink.com 1.10,2013-03-15 16:41:00,
2013-03-15 13:11:00,65.6,37.0,30.16,NW,310,1.0,-999.0,35,-99.99,,,0.00,weatherlink.com 1.10,2013-03-15 17:11:00,
2013-03-15 13:26:00,66.1,37.0,30.15,SE,143,0.0,-999.0,34,-99.99,,,0.00,weatherlink.com 1.10,2013-03-15 17:26:00,
2013-03-15 13:41:00,66.4,37.0,30.14,WSW,257,2.0,-999.0,34,-99.99,,,0.00,weatherlink.com 1.10,2013-03-15 17:41:00,
2013-03-15 13:56:00,67.4,39.0,30.14,North,350,1.0,-999.0,35,-99.99,,,0.00,weatherlink.com 1.10,2013-03-15 17:56:00,
2013-03-15 14:11:00,68.4,39.0,30.13,WNW,286,1.0,-999.0,34,-99.99,,,0.00,weatherlink.com 1.10,2013-03-15 18:11:00,
2013-03-15 14:26:00,68.5,37.0,30.12,WNW,290,1.0,-999.0,31,-99.99,,,0.00,weatherlink.com 1.10,2013-03-15 18:26:00,
2013-03-15 14:41:00,68.5,37.0,30.11,WSW,246,0.0,-999.0,31,-99.99,,,0.00,weatherlink.com 1.10,2013-03-15 18:41:00,
2013-03-15 14:56:00,68.0,38.0,30.10,SE,144,2.0,-999.0,34,-99.99,,,0.00,weatherlink.com 1.10,2013-03-15 18:56:00,
2013-03-15 15:26:00,69.5,41.0,30.08,SW,226,3.0,-999.0,35,-99.99,,,0.00,weatherlink.com 1.10,2013-03-15 19:26:00,
2013-03-15 15:41:00,68.8,41.0,30.07,West,263,0.0,-999.0,36,-99.99,,,0.00,weatherlink.com 1.10,2013-03-15 19:41:00,
2013-03-15 15:56:00,69.5,41.0,30.06,NNW,347,1.0,-999.0,35,-99.99,,,0.00,weatherlink.com 1.10,2013-03-15 19:56:00,
2013-03-15 16:11:00,69.6,41.0,30.06,West,262,2.0,-999.0,36,-99.99,,,0.00,weatherlink.com 1.10,2013-03-15 20:11:00,
2013-03-15 16:27:00,68.9,41.0,30.05,SW,232,0.0,-999.0,36,-99.99,,,0.00,weatherlink.com 1.10,2013-03-15 20:27:00,
2013-03-15 16:42:00,68.9,40.0,30.05,ESE,106,2.0,-999.0,35,-99.99,,,0.00,weatherlink.com 1.10,2013-03-15 20:42:00,
2013-03-15 16:57:00,67.9,44.0,30.04,SW,234,3.0,-999.0,43,-99.99,,,0.00,weatherlink.com 1.10,2013-03-15 20:57:00,
2013-03-15 17:12:00,67.1,44.0,30.04,SW,233,0.0,-999.0,44,-99.99,,,0.00,weatherlink.com 1.10,2013-03-15 21:12:00,
2013-03-15 17:27:00,65.9,44.0,30.04,SE,142,2.0,-999.0,45,-99.99,,,0.00,weatherlink.com 1.10,2013-03-15 21:27:00,
2013-03-15 17:42:00,64.8,45.0,30.04,SW,225,1.0,-999.0,49,-99.99,,,0.00,weatherlink.com 1.10,2013-03-15 21:42:00,
2013-03-15 17:57:00,63.6,45.0,30.04,SSW,193,0.0,-999.0,52,-99.99,,,0.00,weatherlink.com 1.10,2013-03-15 21:57:00,
2013-03-15 18:12:00,62.1,45.0,30.04,SW,225,1.0,-999.0,53,-99.99,,,0.00,weatherlink.com 1.10,2013-03-15 22:12:00,
2013-03-15 18:27:00,61.2,43.0,30.04,SW,225,1.0,-999.0,52,-99.99,,,0.00,weatherlink.com 1.10,2013-03-15 22:27:00,
2013-03-15 18:42:00,60.4,42.0,30.04,SSW,213,1.0,-999.0,52,-99.99,,,0.00,weatherlink.com 1.10,2013-03-15 22:42:00,
2013-03-15 18:57:00,59.5,43.0,30.04,West,273,2.0,-999.0,55,-99.99,,,0.00,weatherlink.com 1.10,2013-03-15 22:57:00,
2013-03-15 19:12:00,58.5,46.0,30.05,SW,221,0.0,-999.0,63,-99.99,,,0.00,weatherlink.com 1.10,2013-03-15 23:12:00,
2013-03-15 19:27:00,57.5,46.0,30.04,SW,218,0.0,-999.0,66,-99.99,,,0.00,weatherlink.com 1.10,2013-03-15 23:27:00,
2013-03-15 19:42:00,56.6,45.0,30.05,SSE,163,0.0,-999.0,66,-99.99,,,0.00,weatherlink.com 1.10,2013-03-15 23:42:00,
2013-03-15 20:12:00,55.6,46.0,30.05,SSW,213,0.0,-999.0,69,-99.99,,,0.00,weatherlink.com 1.10,2013-03-16 00:12:00,
2013-03-15 20:27:00,55.3,46.0,30.04,SW,218,1.0,-999.0,71,-99.99,,,0.00,weatherlink.com 1.10,2013-03-16 00:27:00,
2013-03-15 20:42:00,54.9,46.0,30.05,SW,221,0.0,-999.0,73,-99.99,,,0.00,weatherlink.com 1.10,2013-03-16 00:42:00,
2013-03-15 20:57:00,54.7,47.0,30.05,SW,225,0.0,-999.0,76,-99.99,,,0.00,weatherlink.com 1.10,2013-03-16 00:57:00,
2013-03-15 21:12:00,54.8,48.0,30.05,SW,217,0.0,-999.0,77,-99.99,,,0.00,weatherlink.com 1.10,2013-03-16 01:12:00,
2013-03-15 21:27:00,54.9,48.0,30.05,SW,221,0.0,-999.0,77,-99.99,,,0.00,weatherlink.com 1.10,2013-03-16 01:27:00,
2013-03-15 21:42:00,55.4,48.0,30.05,SW,234,2.0,-999.0,77,-99.99,,,0.00,weatherlink.com 1.10,2013-03-16 01:42:00,
2013-03-15 21:57:00,55.6,48.0,30.05,SW,226,0.0,-999.0,76,-99.99,,,0.00,weatherlink.com 1.10,2013-03-16 01:57:00,
2013-03-15 22:12:00,55.9,48.0,30.05,SW,214,0.0,-999.0,76,-99.99,,,0.00,weatherlink.com 1.10,2013-03-16 02:12:00,
2013-03-15 22:27:00,56.2,49.0,30.05,South,190,3.0,-999.0,76,-99.99,,,0.00,weatherlink.com 1.10,2013-03-16 02:27:00,
2013-03-15 22:42:00,56.4,49.0,30.05,SW,223,2.0,-999.0,76,-99.99,,,0.00,weatherlink.com 1.10,2013-03-16 02:42:00,
2013-03-15 22:57:00,56.6,49.0,30.05,SW,227,1.0,-999.0,76,-99.99,,,0.00,weatherlink.com 1.10,2013-03-16 02:57:00,
2013-03-15 23:12:00,56.8,49.0,30.04,SSW,213,0.0,-999.0,76,-99.99,,,0.00,weatherlink.com 1.10,2013-03-16 03:12:00,
2013-03-15 23:27:00,57.0,50.0,30.04,WSW,251,1.0,-999.0,76,-99.99,,,0.00,weatherlink.com 1.10,2013-03-16 03:27:00,
2013-03-15 23:42:00,57.3,50.0,30.04,SW,232,0.0,-999.0,76,-99.99,,,0.00,weatherlink.com 1.10,2013-03-16 03:42:00,
2013-03-15 23:57:00,57.5,50.0,30.04,WSW,238,0.0,-999.0,77,-99.99,,,0.00,weatherlink.com 1.10,2013-03-16 03:57:00,